createdAt,value
2018-08-07T00:00:25.532Z,21.30
2018-08-07T00:02:54.383Z,21.30
2018-08-07T00:05:23.273Z,21.30
2018-08-07T00:07:54.725Z,21.20
2018-08-07T00:10:24.962Z,21.20
2018-08-07T00:12:54.099Z,21.10
2018-08-07T00:15:25.663Z,21.10
2018-08-07T00:17:54.491Z,21.10
2018-08-07T00:20:23.379Z,21.00
2018-08-07T00:22:52.276Z,21.00
2018-08-07T00:25:21.135Z,20.90
2018-08-07T00:27:49.954Z,20.80
2018-08-07T00:30:18.837Z,20.80
2018-08-07T00:32:47.673Z,20.80
2018-08-07T00:35:18.607Z,20.90
2018-08-07T00:37:47.922Z,20.80
2018-08-07T00:40:18.310Z,20.70
2018-08-07T00:42:47.586Z,20.70
2018-08-07T00:45:20.687Z,20.70
2018-08-07T00:47:50.213Z,20.70
2018-08-07T00:50:20.706Z,20.60
2018-08-07T00:52:50.757Z,20.60
2018-08-07T00:55:20.512Z,20.60
2018-08-07T00:57:49.921Z,20.40
2018-08-07T01:00:18.808Z,20.50
2018-08-07T01:02:47.714Z,20.50
2018-08-07T01:05:17.586Z,20.30
2018-08-07T01:07:46.403Z,20.20
2018-08-07T01:10:18.070Z,20.00
2018-08-07T01:12:47.029Z,20.00
2018-08-07T01:15:18.911Z,20.10
2018-08-07T01:17:47.943Z,20.20
2018-08-07T01:20:21.218Z,20.20
2018-08-07T01:22:50.080Z,20.10
2018-08-07T01:25:21.632Z,20.10
2018-08-07T01:27:50.532Z,20.10
2018-08-07T01:30:23.707Z,20.10
2018-08-07T01:32:53.036Z,20.10
2018-08-07T01:35:22.046Z,20.00
2018-08-07T01:37:50.907Z,19.90
2018-08-07T01:40:19.835Z,20.00
2018-08-07T01:42:48.635Z,20.00
2018-08-07T01:45:17.500Z,20.00
2018-08-07T01:47:46.340Z,20.00
2018-08-07T01:50:16.017Z,20.00
2018-08-07T01:52:44.861Z,20.00
2018-08-07T01:55:20.626Z,20.00
2018-08-07T01:57:49.580Z,19.90
2018-08-07T02:00:18.478Z,19.90
2018-08-07T02:02:47.507Z,19.80
2018-08-07T02:05:16.388Z,19.80
2018-08-07T02:07:45.240Z,19.70
2018-08-07T02:10:16.130Z,19.70
2018-08-07T02:12:44.978Z,19.70
2018-08-07T02:15:14.399Z,19.70
2018-08-07T02:17:43.209Z,19.70
2018-08-07T02:20:15.848Z,19.60
2018-08-07T02:22:45.300Z,19.60
2018-08-07T02:25:16.111Z,19.60
2018-08-07T02:27:45.527Z,19.50
2018-08-07T02:30:15.620Z,19.40
2018-08-07T02:32:44.644Z,19.50
2018-08-07T02:35:14.792Z,19.40
2018-08-07T02:37:44.668Z,19.50
2018-08-07T02:40:14.498Z,19.40
2018-08-07T02:42:43.871Z,19.40
2018-08-07T02:45:16.139Z,19.40
2018-08-07T02:47:45.413Z,19.40
2018-08-07T02:50:16.673Z,19.40
2018-08-07T02:52:45.681Z,19.40
2018-08-07T02:55:14.672Z,19.30
2018-08-07T02:57:44.260Z,19.30
2018-08-07T03:00:18.990Z,19.30
2018-08-07T03:02:47.911Z,19.30
2018-08-07T03:05:17.395Z,19.30
2018-08-07T03:07:46.255Z,19.20
2018-08-07T03:10:15.075Z,19.20
2018-08-07T03:12:43.915Z,19.10
2018-08-07T03:15:15.811Z,19.10
2018-08-07T03:17:45.756Z,19.00
2018-08-07T03:20:14.615Z,19.00
2018-08-07T03:22:43.493Z,19.10
2018-08-07T03:25:13.290Z,19.00
2018-08-07T03:27:42.844Z,19.00
2018-08-07T03:30:14.139Z,19.00
2018-08-07T03:32:43.187Z,19.00
2018-08-07T03:35:12.049Z,18.90
2018-08-07T03:37:41.172Z,19.00
2018-08-07T03:40:13.827Z,19.00
2018-08-07T03:42:42.860Z,19.00
2018-08-07T03:45:13.418Z,19.00
2018-08-07T03:47:42.768Z,19.00
2018-08-07T03:50:12.064Z,19.00
2018-08-07T03:52:40.878Z,19.00
2018-08-07T03:55:13.640Z,19.00
2018-08-07T03:57:43.231Z,19.00
2018-08-07T04:00:16.583Z,19.00
2018-08-07T04:02:45.619Z,19.00
2018-08-07T04:05:14.694Z,18.90
2018-08-07T04:07:43.576Z,19.00
2018-08-07T04:10:16.218Z,18.90
2018-08-07T04:12:45.131Z,19.00
2018-08-07T04:15:16.669Z,19.00
2018-08-07T04:17:45.760Z,19.10
2018-08-07T04:20:16.766Z,19.10
2018-08-07T04:22:45.567Z,19.20
2018-08-07T04:25:14.423Z,19.20
2018-08-07T04:27:43.396Z,19.30
2018-08-07T04:30:15.202Z,19.40
2018-08-07T04:32:44.357Z,19.30
2018-08-07T04:35:14.014Z,19.50
2018-08-07T04:37:43.125Z,19.60
2018-08-07T04:40:12.203Z,19.60
2018-08-07T04:42:41.436Z,19.70
2018-08-07T04:45:18.460Z,19.80
2018-08-07T04:47:48.092Z,19.90
2018-08-07T04:50:16.935Z,19.90
2018-08-07T04:52:45.801Z,20.00
2018-08-07T04:55:14.644Z,19.90
2018-08-07T04:57:43.552Z,20.00
2018-08-07T05:00:15.401Z,20.20
2018-08-07T05:02:45.195Z,20.40
2018-08-07T05:05:13.996Z,20.50
2018-08-07T05:07:42.835Z,20.70
2018-08-07T05:10:15.248Z,21.00
2018-08-07T05:12:44.951Z,21.20
2018-08-07T05:15:14.288Z,21.30
2018-08-07T05:17:44.442Z,21.50
2018-08-07T05:20:13.404Z,21.50
2018-08-07T05:22:42.202Z,21.60
2018-08-07T05:25:11.956Z,21.70
2018-08-07T05:27:40.964Z,21.90
2018-08-07T05:30:15.919Z,22.00
2018-08-07T05:32:45.006Z,22.20
2018-08-07T05:35:14.857Z,22.40
2018-08-07T05:37:44.142Z,22.50
2018-08-07T05:40:12.930Z,22.60
2018-08-07T05:42:42.257Z,22.50
2018-08-07T05:45:14.046Z,22.60
2018-08-07T05:47:42.859Z,22.80
2018-08-07T05:50:14.544Z,22.80
2018-08-07T05:52:43.399Z,23.00
2018-08-07T05:55:12.599Z,23.00
2018-08-07T05:57:41.408Z,23.10
2018-08-07T06:00:15.838Z,23.10
2018-08-07T06:02:45.643Z,23.20
2018-08-07T06:05:14.514Z,23.30
2018-08-07T06:07:43.373Z,23.40
2018-08-07T06:10:13.365Z,23.40
2018-08-07T06:12:42.241Z,23.40
2018-08-07T06:15:13.864Z,23.40
2018-08-07T06:17:43.660Z,23.60
2018-08-07T06:20:13.024Z,23.70
2018-08-07T06:22:41.880Z,23.70
2018-08-07T06:25:11.247Z,23.80
2018-08-07T06:27:40.871Z,23.60
2018-08-07T06:30:21.072Z,23.80
2018-08-07T06:32:50.479Z,23.90
2018-08-07T06:35:19.696Z,24.00
2018-08-07T06:37:48.596Z,24.00
2018-08-07T06:40:17.377Z,24.10
2018-08-07T06:42:46.364Z,24.00
2018-08-07T06:45:16.641Z,24.10
2018-08-07T06:47:45.532Z,24.40
2018-08-07T06:50:15.869Z,24.10
2018-08-07T06:52:45.572Z,24.00
2018-08-07T06:55:14.399Z,24.20
2018-08-07T06:57:43.250Z,24.50
2018-08-07T07:00:28.977Z,24.50
2018-08-07T07:02:58.116Z,24.60
2018-08-07T07:07:55.349Z,24.50
2018-08-07T07:10:24.174Z,24.50
2018-08-07T07:12:53.020Z,24.80
2018-08-07T07:15:21.860Z,24.90
2018-08-07T07:17:50.692Z,25.00
2018-08-07T07:20:20.072Z,25.10
2018-08-07T07:22:49.783Z,25.30
2018-08-07T07:25:18.631Z,25.40
2018-08-07T07:27:47.537Z,25.40
2018-08-07T07:30:20.064Z,25.40
2018-08-07T07:32:50.296Z,25.70
2018-08-07T07:35:19.406Z,25.80
2018-08-07T07:37:48.394Z,25.80
2018-08-07T07:40:17.284Z,25.80
2018-08-07T07:42:46.161Z,26.00
2018-08-07T07:45:17.921Z,26.30
2018-08-07T07:47:46.778Z,26.50
2018-08-07T07:50:18.110Z,26.60
2018-08-07T07:52:46.952Z,26.70
2018-08-07T07:55:17.015Z,26.90
2018-08-07T07:57:45.834Z,27.00
2018-08-07T08:00:21.420Z,27.20
2018-08-07T08:02:50.618Z,27.30
2018-08-07T08:05:19.998Z,27.50
2018-08-07T08:07:48.808Z,27.70
2018-08-07T08:10:17.665Z,27.50
2018-08-07T08:12:46.521Z,27.70
2018-08-07T08:15:17.555Z,27.70
2018-08-07T08:17:47.411Z,27.70
2018-08-07T08:20:19.108Z,27.70
2018-08-07T08:22:48.620Z,27.80
2018-08-07T08:25:17.468Z,27.90
2018-08-07T08:27:46.298Z,27.90
2018-08-07T08:30:16.252Z,28.00
2018-08-07T08:32:45.615Z,28.00
2018-08-07T08:35:15.968Z,28.20
2018-08-07T08:37:45.268Z,28.20
2018-08-07T08:40:19.502Z,28.40
2018-08-07T08:42:48.413Z,28.50
2018-08-07T08:45:20.121Z,28.30
2018-08-07T08:47:51.733Z,28.40
2018-08-07T08:50:21.965Z,28.40
2018-08-07T08:52:50.935Z,28.40
2018-08-07T08:55:19.727Z,28.40
2018-08-07T08:57:48.611Z,28.50
2018-08-07T09:00:24.439Z,28.80
2018-08-07T09:02:54.188Z,29.00
2018-08-07T09:05:23.037Z,29.20
2018-08-07T09:07:51.927Z,29.30
2018-08-07T09:10:24.514Z,29.30
2018-08-07T09:12:54.418Z,29.40
2018-08-07T09:15:23.515Z,29.60
2018-08-07T09:17:52.371Z,29.50
2018-08-07T09:20:27.903Z,29.50
2018-08-07T09:22:57.125Z,29.60
2018-08-07T09:25:27.435Z,29.60
2018-08-07T09:27:56.214Z,29.80
2018-08-07T09:30:26.194Z,29.90
2018-08-07T09:32:55.771Z,30.00
2018-08-07T09:35:24.956Z,30.20
2018-08-07T09:37:54.415Z,30.40
2018-08-07T09:40:23.593Z,30.40
2018-08-07T09:42:53.790Z,30.60
2018-08-07T09:45:27.887Z,30.70
2018-08-07T09:47:56.780Z,30.80
2018-08-07T09:50:25.696Z,31.00
2018-08-07T09:52:54.501Z,31.10
2018-08-07T09:55:23.320Z,31.20
2018-08-07T09:57:52.217Z,31.40
2018-08-07T10:00:27.268Z,31.50
2018-08-07T10:03:01.376Z,31.50
2018-08-07T10:05:31.529Z,31.70
2018-08-07T10:08:00.356Z,31.70
2018-08-07T10:10:30.127Z,31.90
2018-08-07T10:12:58.935Z,32.10
2018-08-07T10:15:27.793Z,32.30
2018-08-07T10:17:56.735Z,32.40
2018-08-07T10:20:25.555Z,32.60
2018-08-07T10:22:54.338Z,32.50
2018-08-07T10:25:23.154Z,32.80
2018-08-07T10:27:51.958Z,33.10
2018-08-07T10:30:23.467Z,33.10
2018-08-07T10:32:53.052Z,33.30
2018-08-07T10:35:21.940Z,33.60
2018-08-07T10:37:50.957Z,33.60
2018-08-07T10:40:21.562Z,33.80
2018-08-07T10:42:50.367Z,34.00
2018-08-07T10:45:20.660Z,34.30
2018-08-07T10:47:49.527Z,34.40
2018-08-07T10:50:21.190Z,34.80
2018-08-07T10:52:50.263Z,34.90
2018-08-07T10:55:20.090Z,35.10
2018-08-07T10:57:50.974Z,35.40
2018-08-07T11:00:22.877Z,35.60
2018-08-07T11:02:52.540Z,36.00
2018-08-07T11:05:22.119Z,36.20
2018-08-07T11:07:51.165Z,36.40
2018-08-07T11:10:20.566Z,36.60
2018-08-07T11:12:49.387Z,36.90
2018-08-07T11:15:21.393Z,37.10
2018-08-07T11:17:51.200Z,37.50
2018-08-07T11:20:20.592Z,37.80
2018-08-07T11:22:50.640Z,37.80
2018-08-07T11:25:20.708Z,38.20
2018-08-07T11:27:49.541Z,38.70
2018-08-07T11:30:21.057Z,39.00
2018-08-07T11:32:50.456Z,39.60
2018-08-07T11:35:20.081Z,39.90
2018-08-07T11:37:50.068Z,40.30
2018-08-07T11:40:20.273Z,41.20
2018-08-07T11:42:49.748Z,41.70
2018-08-07T11:45:21.954Z,42.10
2018-08-07T11:47:50.782Z,41.70
2018-08-07T11:50:21.065Z,42.00
2018-08-07T11:52:49.909Z,41.80
2018-08-07T11:55:19.471Z,43.10
2018-08-07T11:57:50.103Z,44.90
2018-08-07T12:00:23.983Z,45.10
2018-08-07T12:02:52.831Z,46.60
2018-08-07T12:05:21.718Z,47.20
2018-08-07T12:07:50.589Z,47.10
2018-08-07T12:10:20.122Z,47.40
2018-08-07T12:12:48.952Z,47.50
2018-08-07T12:15:20.846Z,49.00
2018-08-07T12:17:49.849Z,48.90
2018-08-07T12:20:18.694Z,47.70
2018-08-07T12:22:48.063Z,48.20
2018-08-07T12:25:17.731Z,47.70
2018-08-07T12:27:46.630Z,48.70
2018-08-07T12:30:18.380Z,49.90
2018-08-07T12:32:47.459Z,51.00
2018-08-07T12:35:16.317Z,51.60
2018-08-07T12:37:45.145Z,52.60
2018-08-07T12:40:20.235Z,54.60
2018-08-07T12:42:49.957Z,54.30
2018-08-07T12:45:18.820Z,53.10
2018-08-07T12:47:48.284Z,52.20
2018-08-07T12:50:17.875Z,52.90
2018-08-07T12:52:46.800Z,52.70
2018-08-07T12:55:19.839Z,54.30
2018-08-07T12:57:49.316Z,55.60
2018-08-07T13:00:25.704Z,56.10
2018-08-07T13:02:54.913Z,54.70
2018-08-07T13:05:23.746Z,54.00
2018-08-07T13:07:52.657Z,53.90
2018-08-07T13:10:22.887Z,52.50
2018-08-07T13:12:52.502Z,53.40
2018-08-07T13:15:21.995Z,55.40
2018-08-07T13:17:51.012Z,56.90
2018-08-07T13:20:20.558Z,57.40
2018-08-07T13:22:49.592Z,56.20
2018-08-07T13:25:21.350Z,55.10
2018-08-07T13:27:50.247Z,54.00
2018-08-07T13:30:24.326Z,53.70
2018-08-07T13:32:53.167Z,53.70
2018-08-07T13:35:22.582Z,53.80
2018-08-07T13:37:52.377Z,55.80
2018-08-07T13:40:22.719Z,57.00
2018-08-07T13:42:51.585Z,57.00
2018-08-07T13:45:24.793Z,58.10
2018-08-07T13:47:53.662Z,56.70
2018-08-07T13:50:24.442Z,56.40
2018-08-07T13:52:53.556Z,55.50
2018-08-07T13:55:23.683Z,55.00
2018-08-07T13:57:52.661Z,53.60
2018-08-07T14:00:23.902Z,54.30
2018-08-07T14:02:53.679Z,54.40
2018-08-07T14:05:23.298Z,53.10
2018-08-07T14:07:53.782Z,52.70
2018-08-07T14:10:23.845Z,51.60
2018-08-07T14:12:52.668Z,51.30
2018-08-07T14:15:23.150Z,52.70
2018-08-07T14:17:52.060Z,53.60
2018-08-07T14:20:20.865Z,53.90
2018-08-07T14:22:49.721Z,52.70
2018-08-07T14:25:21.366Z,54.50
2018-08-07T14:27:50.356Z,54.70
2018-08-07T14:30:21.704Z,56.10
2018-08-07T14:32:50.936Z,56.20
2018-08-07T14:35:19.942Z,54.40
2018-08-07T14:37:49.151Z,53.80
2018-08-07T14:40:23.040Z,51.50
2018-08-07T14:42:52.359Z,50.70
2018-08-07T14:45:24.359Z,51.00
2018-08-07T14:47:54.300Z,50.10
2018-08-07T14:50:25.559Z,50.20
2018-08-07T14:52:54.516Z,52.30
2018-08-07T14:55:23.500Z,53.50
2018-08-07T14:57:53.041Z,53.70
2018-08-07T15:00:23.759Z,52.70
2018-08-07T15:02:52.538Z,54.10
2018-08-07T15:05:21.504Z,54.20
2018-08-07T15:07:50.327Z,55.30
2018-08-07T15:10:23.093Z,55.80
2018-08-07T15:12:51.979Z,54.30
2018-08-07T15:15:23.466Z,55.80
2018-08-07T15:17:52.272Z,54.60
2018-08-07T15:20:23.544Z,53.40
2018-08-07T15:22:52.950Z,54.90
2018-08-07T15:25:22.377Z,53.00
2018-08-07T15:27:51.261Z,52.80
2018-08-07T15:30:25.830Z,51.90
2018-08-07T15:32:55.113Z,54.00
2018-08-07T15:35:25.451Z,51.40
2018-08-07T15:37:54.257Z,53.50
2018-08-07T15:40:23.312Z,54.50
2018-08-07T15:42:52.134Z,54.30
2018-08-07T15:45:22.970Z,53.00
2018-08-07T15:47:51.966Z,53.90
2018-08-07T15:50:21.592Z,53.90
2018-08-07T15:52:51.766Z,54.30
2018-08-07T15:55:22.747Z,53.80
2018-08-07T15:57:51.615Z,52.50
2018-08-07T16:00:25.759Z,52.40
2018-08-07T16:02:54.832Z,51.10
2018-08-07T16:05:23.715Z,51.90
2018-08-07T16:07:53.628Z,52.00
2018-08-07T16:10:22.976Z,51.40
2018-08-07T16:12:52.775Z,52.20
2018-08-07T16:15:21.602Z,52.80
2018-08-07T16:17:51.267Z,51.20
2018-08-07T16:20:20.364Z,51.20
2018-08-07T16:22:49.251Z,50.90
2018-08-07T16:25:19.095Z,51.20
2018-08-07T16:27:48.813Z,52.10
2018-08-07T16:30:24.298Z,52.60
2018-08-07T16:32:53.103Z,52.40
2018-08-07T16:35:21.954Z,50.80
2018-08-07T16:37:50.876Z,51.70
2018-08-07T16:40:22.072Z,52.40
2018-08-07T16:42:52.529Z,52.30
2018-08-07T16:45:22.368Z,52.20
2018-08-07T16:47:51.274Z,52.20
2018-08-07T16:50:24.935Z,52.10
2018-08-07T16:52:54.632Z,52.10
2018-08-07T16:55:25.568Z,51.10
2018-08-07T17:05:25.941Z,50.10
2018-08-07T17:07:54.780Z,48.50
2018-08-07T17:10:26.320Z,46.60
2018-08-07T17:12:55.189Z,46.90
2018-08-07T17:15:23.994Z,47.20
2018-08-07T17:17:52.984Z,47.30
2018-08-07T17:20:22.783Z,46.60
2018-08-07T17:22:52.327Z,46.60
2018-08-07T17:25:22.178Z,46.50
2018-08-07T17:27:51.352Z,45.70
2018-08-07T17:30:22.939Z,45.40
2018-08-07T17:32:51.957Z,45.00
2018-08-07T17:35:23.103Z,44.80
2018-08-07T17:37:53.991Z,44.50
2018-08-07T17:40:24.747Z,43.70
2018-08-07T17:42:53.666Z,43.40
2018-08-07T17:45:22.569Z,42.90
2018-08-07T17:47:51.386Z,42.60
2018-08-07T17:50:24.280Z,41.90
2018-08-07T17:52:55.023Z,41.20
2018-08-07T17:55:23.840Z,40.90
2018-08-07T17:57:54.184Z,40.20
2018-08-07T18:00:24.080Z,38.90
2018-08-07T18:02:52.982Z,38.20
2018-08-07T18:05:21.826Z,37.60
2018-08-07T18:07:53.012Z,36.90
2018-08-07T18:12:51.496Z,35.70
2018-08-07T18:15:21.432Z,35.20
2018-08-07T18:17:50.711Z,34.90
2018-08-07T18:20:22.043Z,34.60
2018-08-07T18:22:50.887Z,34.40
2018-08-07T18:25:19.732Z,34.20
2018-08-07T18:27:48.618Z,34.10
2018-08-07T18:30:20.080Z,33.80
2018-08-07T18:32:48.992Z,33.50
2018-08-07T18:35:20.507Z,33.40
2018-08-07T18:37:49.531Z,33.20
2018-08-07T18:40:18.410Z,33.10
2018-08-07T18:42:47.248Z,32.90
2018-08-07T18:45:16.123Z,32.70
2018-08-07T18:47:45.740Z,32.50
2018-08-07T18:50:21.237Z,32.30
2018-08-07T18:52:50.125Z,32.10
2018-08-07T18:55:18.983Z,31.90
2018-08-07T18:57:49.097Z,31.80
2018-08-07T19:00:19.432Z,31.60
2018-08-07T19:02:48.292Z,31.40
2018-08-07T19:05:19.330Z,31.30
2018-08-07T19:07:48.152Z,31.10
2018-08-07T19:10:17.357Z,31.00
2018-08-07T19:12:47.222Z,30.90
2018-08-07T19:15:17.313Z,30.80
2018-08-07T19:17:46.169Z,30.70
2018-08-07T19:20:17.909Z,30.60
2018-08-07T19:22:46.986Z,30.40
2018-08-07T19:25:15.813Z,30.40
2018-08-07T19:27:44.979Z,30.30
2018-08-07T19:30:16.049Z,30.20
2018-08-07T19:32:44.861Z,30.10
2018-08-07T19:35:14.135Z,30.00
2018-08-07T19:37:43.279Z,30.00
2018-08-07T19:40:17.553Z,30.00
2018-08-07T19:42:47.157Z,29.90
2018-08-07T19:45:16.306Z,29.90
2018-08-07T19:47:45.773Z,29.80
2018-08-07T19:50:16.484Z,29.80
2018-08-07T19:52:45.318Z,29.70
2018-08-07T19:55:16.716Z,29.70
2018-08-07T19:57:45.719Z,29.50
2018-08-07T20:00:20.134Z,29.50
2018-08-07T20:02:49.389Z,29.50
2018-08-07T20:05:18.184Z,29.40
2018-08-07T20:07:47.033Z,29.40
2018-08-07T20:10:16.856Z,29.30
2018-08-07T20:12:45.886Z,29.30
2018-08-07T20:15:19.802Z,29.20
2018-08-07T20:17:49.257Z,29.20
2018-08-07T20:20:18.349Z,29.20
2018-08-07T20:22:47.184Z,29.10
2018-08-07T20:25:16.096Z,29.10
2018-08-07T20:27:44.890Z,29.00
2018-08-07T20:30:18.991Z,28.90
2018-08-07T20:32:48.700Z,28.90
2018-08-07T20:35:17.560Z,28.80
2018-08-07T20:37:46.518Z,28.70
2018-08-07T20:40:22.107Z,28.70
2018-08-07T20:42:51.465Z,28.60
2018-08-07T20:45:21.139Z,28.60
2018-08-07T20:47:50.018Z,28.60
2018-08-07T20:50:21.161Z,28.50
2018-08-07T20:52:50.291Z,28.50
2018-08-07T20:55:19.308Z,28.40
2018-08-07T20:57:48.139Z,28.40
2018-08-07T21:00:20.682Z,28.40
2018-08-07T21:02:49.790Z,28.40
2018-08-07T21:05:18.708Z,28.30
2018-08-07T21:07:47.609Z,28.20
2018-08-07T21:10:20.023Z,28.20
2018-08-07T21:12:48.921Z,28.10
2018-08-07T21:15:17.780Z,28.10
2018-08-07T21:17:46.647Z,28.10
2018-08-07T21:20:17.470Z,28.00
2018-08-07T21:22:46.701Z,28.00
2018-08-07T21:25:19.792Z,28.00
2018-08-07T21:27:50.285Z,28.00
2018-08-07T21:30:21.561Z,28.00
2018-08-07T21:32:50.368Z,28.00
2018-08-07T21:35:19.236Z,27.90
2018-08-07T21:37:48.055Z,27.90
2018-08-07T21:40:18.698Z,27.80
2018-08-07T21:42:48.177Z,27.90
2018-08-07T21:45:17.223Z,27.80
2018-08-07T21:47:46.243Z,27.70
2018-08-07T21:50:17.405Z,27.70
2018-08-07T21:52:46.349Z,27.70
2018-08-07T21:55:16.371Z,27.70
2018-08-07T21:57:45.293Z,27.60
2018-08-07T22:00:31.708Z,27.60
2018-08-07T22:03:00.544Z,27.60
2018-08-07T22:05:29.409Z,27.50
2018-08-07T22:07:58.310Z,27.50
2018-08-07T22:10:27.193Z,27.50
2018-08-07T22:12:56.116Z,27.50
2018-08-07T22:15:24.960Z,27.40
2018-08-07T22:17:53.795Z,27.50
2018-08-07T22:20:22.700Z,27.40
2018-08-07T22:22:51.514Z,27.40
2018-08-07T22:25:20.353Z,27.40
2018-08-07T22:27:49.232Z,27.30
2018-08-07T22:30:20.538Z,27.30
2018-08-07T22:32:49.898Z,27.40
2018-08-07T22:35:18.883Z,27.40
2018-08-07T22:37:47.856Z,27.40
2018-08-07T22:40:17.024Z,27.40
2018-08-07T22:42:45.927Z,27.40
2018-08-07T22:45:16.321Z,27.40
2018-08-07T22:47:45.126Z,27.30
2018-08-07T22:50:15.297Z,27.40
2018-08-07T22:52:44.725Z,27.40
2018-08-07T22:55:16.335Z,27.20
2018-08-07T22:57:45.201Z,27.30
2018-08-07T23:00:19.717Z,27.20
2018-08-07T23:02:48.584Z,27.20
2018-08-07T23:05:18.205Z,27.20
2018-08-07T23:07:47.045Z,27.30
2018-08-07T23:10:20.014Z,27.30
2018-08-07T23:12:48.843Z,27.20
2018-08-07T23:15:19.408Z,27.20
2018-08-07T23:17:48.436Z,27.20
2018-08-07T23:20:18.798Z,27.10
2018-08-07T23:22:47.659Z,27.10
2018-08-07T23:25:16.475Z,27.10
2018-08-07T23:27:45.273Z,27.10
2018-08-07T23:30:16.464Z,27.00
2018-08-07T23:32:45.312Z,27.00
2018-08-07T23:35:14.620Z,27.00
2018-08-07T23:37:43.430Z,26.90
2018-08-07T23:40:13.543Z,26.90
2018-08-07T23:42:43.127Z,26.90
2018-08-07T23:45:13.205Z,26.90
2018-08-07T23:47:42.170Z,26.90
2018-08-07T23:50:12.151Z,26.90
2018-08-07T23:52:41.273Z,26.80
2018-08-07T23:55:10.335Z,26.70
2018-08-07T23:57:39.246Z,26.60
